sensor_id;sensor_type;location;lat;lon;timestamp;temperature;humidity
15455;DHT22;21057;51.024;7.540;2023-07-20T00:02:23;18.40;99.90
15455;DHT22;21057;51.024;7.540;2023-07-20T00:04:50;18.40;99.90
15455;DHT22;21057;51.024;7.540;2023-07-20T00:07:17;18.40;99.90
15455;DHT22;21057;51.024;7.540;2023-07-20T00:09:44;18.40;99.90
15455;DHT22;21057;51.024;7.540;2023-07-20T00:12:10;18.30;99.90
15455;DHT22;21057;51.024;7.540;2023-07-20T00:14:37;18.30;99.90
15455;DHT22;21057;51.024;7.540;2023-07-20T00:17:06;18.20;99.90
15455;DHT22;21057;51.024;7.540;2023-07-20T00:19:33;18.30;99.90
15455;DHT22;21057;51.024;7.540;2023-07-20T00:22:00;18.10;99.90
15455;DHT22;21057;51.024;7.540;2023-07-20T00:24:27;18.00;99.90
15455;DHT22;21057;51.024;7.540;2023-07-20T00:26:54;18.00;99.90
15455;DHT22;21057;51.024;7.540;2023-07-20T00:29:20;18.00;99.90
15455;DHT22;21057;51.024;7.540;2023-07-20T00:31:47;17.80;99.90
15455;DHT22;21057;51.024;7.540;2023-07-20T00:34:15;17.70;99.90
15455;DHT22;21057;51.024;7.540;2023-07-20T00:36:42;17.80;99.90
15455;DHT22;21057;51.024;7.540;2023-07-20T00:39:09;17.80;99.90
15455;DHT22;21057;51.024;7.540;2023-07-20T00:41:36;17.90;99.90
15455;DHT22;21057;51.024;7.540;2023-07-20T00:44:04;17.70;99.90
15455;DHT22;21057;51.024;7.540;2023-07-20T00:46:31;17.70;99.90
15455;DHT22;21057;51.024;7.540;2023-07-20T00:48:59;17.70;99.90
15455;DHT22;21057;51.024;7.540;2023-07-20T00:51:28;17.80;99.90
15455;DHT22;21057;51.024;7.540;2023-07-20T00:53:55;17.70;99.90
15455;DHT22;21057;51.024;7.540;2023-07-20T00:56:22;17.60;99.90
15455;DHT22;21057;51.024;7.540;2023-07-20T00:58:49;17.40;99.90
15455;DHT22;21057;51.024;7.540;2023-07-20T01:01:15;17.40;99.90
15455;DHT22;21057;51.024;7.540;2023-07-20T01:03:42;17.50;99.90
15455;DHT22;21057;51.024;7.540;2023-07-20T01:06:15;17.50;99.90
15455;DHT22;21057;51.024;7.540;2023-07-20T01:08:55;17.60;99.90
15455;DHT22;21057;51.024;7.540;2023-07-20T01:11:32;17.50;99.90
15455;DHT22;21057;51.024;7.540;2023-07-20T01:14:03;17.60;99.90
15455;DHT22;21057;51.024;7.540;2023-07-20T01:16:29;17.60;99.90
15455;DHT22;21057;51.024;7.540;2023-07-20T01:18:56;17.60;99.90
15455;DHT22;21057;51.024;7.540;2023-07-20T01:21:27;17.70;99.90
15455;DHT22;21057;51.024;7.540;2023-07-20T01:27:26;17.70;99.90
15455;DHT22;21057;51.024;7.540;2023-07-20T01:30:16;17.80;99.90
15455;DHT22;21057;51.024;7.540;2023-07-20T01:32:49;17.70;99.90
15455;DHT22;21057;51.024;7.540;2023-07-20T01:35:17;17.70;99.90
15455;DHT22;21057;51.024;7.540;2023-07-20T01:37:46;17.60;99.90
15455;DHT22;21057;51.024;7.540;2023-07-20T01:40:14;17.50;99.90
15455;DHT22;21057;51.024;7.540;2023-07-20T01:42:44;17.60;99.90
15455;DHT22;21057;51.024;7.540;2023-07-20T01:45:12;17.50;99.90
15455;DHT22;21057;51.024;7.540;2023-07-20T01:47:39;17.60;99.90
15455;DHT22;21057;51.024;7.540;2023-07-20T01:50:08;17.60;99.90
15455;DHT22;21057;51.024;7.540;2023-07-20T01:52:35;17.70;99.90
15455;DHT22;21057;51.024;7.540;2023-07-20T01:55:02;17.60;99.90
15455;DHT22;21057;51.024;7.540;2023-07-20T01:57:29;17.60;99.90
15455;DHT22;21057;51.024;7.540;2023-07-20T01:59:56;17.60;99.90
15455;DHT22;21057;51.024;7.540;2023-07-20T02:02:26;17.60;99.90
15455;DHT22;21057;51.024;7.540;2023-07-20T02:04:53;17.60;99.90
15455;DHT22;21057;51.024;7.540;2023-07-20T02:07:21;17.70;99.90
15455;DHT22;21057;51.024;7.540;2023-07-20T02:09:48;17.70;99.90
15455;DHT22;21057;51.024;7.540;2023-07-20T02:12:14;17.70;99.90
15455;DHT22;21057;51.024;7.540;2023-07-20T02:14:42;17.70;99.90
15455;DHT22;21057;51.024;7.540;2023-07-20T02:17:09;17.70;99.90
15455;DHT22;21057;51.024;7.540;2023-07-20T02:19:37;17.80;99.90
15455;DHT22;21057;51.024;7.540;2023-07-20T02:22:04;17.60;99.90
15455;DHT22;21057;51.024;7.540;2023-07-20T02:24:32;17.70;99.90
15455;DHT22;21057;51.024;7.540;2023-07-20T02:26:59;17.70;99.90
15455;DHT22;21057;51.024;7.540;2023-07-20T02:29:26;17.70;99.90
15455;DHT22;21057;51.024;7.540;2023-07-20T02:31:53;17.70;99.90
15455;DHT22;21057;51.024;7.540;2023-07-20T02:34:19;17.70;99.90
15455;DHT22;21057;51.024;7.540;2023-07-20T02:36:46;17.60;99.90
15455;DHT22;21057;51.024;7.540;2023-07-20T02:39:13;17.60;99.90
15455;DHT22;21057;51.024;7.540;2023-07-20T02:41:41;17.60;99.90
15455;DHT22;21057;51.024;7.540;2023-07-20T02:44:08;17.70;99.90
15455;DHT22;21057;51.024;7.540;2023-07-20T02:46:35;17.70;99.90
15455;DHT22;21057;51.024;7.540;2023-07-20T02:49:02;17.60;99.90
15455;DHT22;21057;51.024;7.540;2023-07-20T02:51:29;17.70;99.90
15455;DHT22;21057;51.024;7.540;2023-07-20T02:53:56;17.90;99.90
15455;DHT22;21057;51.024;7.540;2023-07-20T02:56:23;17.80;99.90
15455;DHT22;21057;51.024;7.540;2023-07-20T02:58:51;17.80;99.90
15455;DHT22;21057;51.024;7.540;2023-07-20T03:01:18;17.90;99.90
15455;DHT22;21057;51.024;7.540;2023-07-20T03:03:45;17.80;99.90
15455;DHT22;21057;51.024;7.540;2023-07-20T03:06:13;18.00;99.90
15455;DHT22;21057;51.024;7.540;2023-07-20T03:08:40;17.70;99.90
15455;DHT22;21057;51.024;7.540;2023-07-20T03:11:12;17.70;99.90
15455;DHT22;21057;51.024;7.540;2023-07-20T03:13:39;17.80;99.90
15455;DHT22;21057;51.024;7.540;2023-07-20T03:16:07;17.90;99.90
15455;DHT22;21057;51.024;7.540;2023-07-20T03:18:38;17.90;99.90
15455;DHT22;21057;51.024;7.540;2023-07-20T03:21:05;17.90;99.90
15455;DHT22;21057;51.024;7.540;2023-07-20T03:23:32;17.90;99.90
15455;DHT22;21057;51.024;7.540;2023-07-20T03:25:59;17.70;99.90
15455;DHT22;21057;51.024;7.540;2023-07-20T03:28:26;17.70;99.90
15455;DHT22;21057;51.024;7.540;2023-07-20T03:30:53;17.70;99.90
15455;DHT22;21057;51.024;7.540;2023-07-20T03:33:22;17.80;99.90
15455;DHT22;21057;51.024;7.540;2023-07-20T03:35:49;17.60;99.90
15455;DHT22;21057;51.024;7.540;2023-07-20T03:38:16;17.70;99.90
15455;DHT22;21057;51.024;7.540;2023-07-20T03:40:49;17.60;99.90
15455;DHT22;21057;51.024;7.540;2023-07-20T03:43:16;17.60;99.90
15455;DHT22;21057;51.024;7.540;2023-07-20T03:45:43;17.70;99.90
15455;DHT22;21057;51.024;7.540;2023-07-20T03:48:10;17.70;99.90
15455;DHT22;21057;51.024;7.540;2023-07-20T03:50:39;17.80;99.90
15455;DHT22;21057;51.024;7.540;2023-07-20T03:53:05;17.80;99.90
15455;DHT22;21057;51.024;7.540;2023-07-20T03:55:32;17.80;99.90
15455;DHT22;21057;51.024;7.540;2023-07-20T03:57:59;17.60;99.90
15455;DHT22;21057;51.024;7.540;2023-07-20T04:00:26;17.60;99.90
15455;DHT22;21057;51.024;7.540;2023-07-20T04:02:53;17.70;99.90
15455;DHT22;21057;51.024;7.540;2023-07-20T04:05:20;17.80;99.90
15455;DHT22;21057;51.024;7.540;2023-07-20T04:07:48;17.80;99.90
15455;DHT22;21057;51.024;7.540;2023-07-20T04:10:16;17.90;99.90
15455;DHT22;21057;51.024;7.540;2023-07-20T04:12:43;17.80;99.90
15455;DHT22;21057;51.024;7.540;2023-07-20T04:15:11;17.80;99.90
15455;DHT22;21057;51.024;7.540;2023-07-20T04:17:38;17.70;99.90
15455;DHT22;21057;51.024;7.540;2023-07-20T04:20:07;17.80;99.90
15455;DHT22;21057;51.024;7.540;2023-07-20T04:22:34;17.80;99.90
15455;DHT22;21057;51.024;7.540;2023-07-20T04:25:02;17.70;99.90
15455;DHT22;21057;51.024;7.540;2023-07-20T04:27:29;17.60;99.90
15455;DHT22;21057;51.024;7.540;2023-07-20T04:29:57;17.60;99.90
15455;DHT22;21057;51.024;7.540;2023-07-20T04:32:24;17.70;99.90
15455;DHT22;21057;51.024;7.540;2023-07-20T04:34:51;17.80;99.90
15455;DHT22;21057;51.024;7.540;2023-07-20T04:37:18;17.70;99.90
15455;DHT22;21057;51.024;7.540;2023-07-20T04:39:44;17.60;99.90
15455;DHT22;21057;51.024;7.540;2023-07-20T04:42:12;17.70;99.90
15455;DHT22;21057;51.024;7.540;2023-07-20T04:44:39;17.80;99.90
15455;DHT22;21057;51.024;7.540;2023-07-20T04:47:06;17.80;99.90
15455;DHT22;21057;51.024;7.540;2023-07-20T04:49:34;17.80;99.90
15455;DHT22;21057;51.024;7.540;2023-07-20T04:52:01;17.80;99.90
15455;DHT22;21057;51.024;7.540;2023-07-20T04:54:29;18.00;99.90
15455;DHT22;21057;51.024;7.540;2023-07-20T04:56:56;18.00;99.90
15455;DHT22;21057;51.024;7.540;2023-07-20T04:59:24;17.70;99.90
15455;DHT22;21057;51.024;7.540;2023-07-20T05:01:51;17.60;99.90
15455;DHT22;21057;51.024;7.540;2023-07-20T05:04:18;17.70;99.90
15455;DHT22;21057;51.024;7.540;2023-07-20T05:06:45;17.80;99.90
15455;DHT22;21057;51.024;7.540;2023-07-20T05:09:12;17.60;99.90
15455;DHT22;21057;51.024;7.540;2023-07-20T05:11:38;17.60;99.90
15455;DHT22;21057;51.024;7.540;2023-07-20T05:14:05;17.60;99.90
15455;DHT22;21057;51.024;7.540;2023-07-20T05:16:33;17.70;99.90
15455;DHT22;21057;51.024;7.540;2023-07-20T05:19:00;17.70;99.90
15455;DHT22;21057;51.024;7.540;2023-07-20T05:21:27;17.50;99.90
15455;DHT22;21057;51.024;7.540;2023-07-20T05:23:54;17.50;99.90
15455;DHT22;21057;51.024;7.540;2023-07-20T05:26:20;17.50;99.90
15455;DHT22;21057;51.024;7.540;2023-07-20T05:28:47;17.60;99.90
15455;DHT22;21057;51.024;7.540;2023-07-20T05:31:14;17.50;99.90
15455;DHT22;21057;51.024;7.540;2023-07-20T05:33:42;17.70;99.90
15455;DHT22;21057;51.024;7.540;2023-07-20T05:36:09;17.70;99.90
15455;DHT22;21057;51.024;7.540;2023-07-20T05:38:36;17.60;99.90
15455;DHT22;21057;51.024;7.540;2023-07-20T05:41:03;17.60;99.90
15455;DHT22;21057;51.024;7.540;2023-07-20T05:43:30;17.80;99.90
15455;DHT22;21057;51.024;7.540;2023-07-20T05:45:57;17.90;99.90
15455;DHT22;21057;51.024;7.540;2023-07-20T05:48:24;17.90;99.90
15455;DHT22;21057;51.024;7.540;2023-07-20T05:50:52;17.90;99.90
15455;DHT22;21057;51.024;7.540;2023-07-20T05:53:19;18.10;99.90
15455;DHT22;21057;51.024;7.540;2023-07-20T05:55:52;18.10;99.90
15455;DHT22;21057;51.024;7.540;2023-07-20T05:58:19;18.20;99.90
15455;DHT22;21057;51.024;7.540;2023-07-20T06:00:47;18.40;99.90
15455;DHT22;21057;51.024;7.540;2023-07-20T06:03:14;18.60;99.90
15455;DHT22;21057;51.024;7.540;2023-07-20T06:05:42;18.40;99.90
15455;DHT22;21057;51.024;7.540;2023-07-20T06:08:10;18.50;99.90
15455;DHT22;21057;51.024;7.540;2023-07-20T06:10:37;18.50;99.90
15455;DHT22;21057;51.024;7.540;2023-07-20T06:13:04;18.40;99.90
15455;DHT22;21057;51.024;7.540;2023-07-20T06:15:32;18.40;99.90
15455;DHT22;21057;51.024;7.540;2023-07-20T06:18:00;18.60;99.90
15455;DHT22;21057;51.024;7.540;2023-07-20T06:20:27;18.60;99.90
15455;DHT22;21057;51.024;7.540;2023-07-20T06:22:54;18.30;99.90
15455;DHT22;21057;51.024;7.540;2023-07-20T06:25:22;18.40;99.90
15455;DHT22;21057;51.024;7.540;2023-07-20T06:27:49;18.40;99.90
15455;DHT22;21057;51.024;7.540;2023-07-20T06:30:17;18.50;99.90
15455;DHT22;21057;51.024;7.540;2023-07-20T06:32:44;18.70;99.90
15455;DHT22;21057;51.024;7.540;2023-07-20T06:35:11;18.80;99.90
15455;DHT22;21057;51.024;7.540;2023-07-20T06:37:38;18.60;99.90
15455;DHT22;21057;51.024;7.540;2023-07-20T06:40:06;18.70;99.90
15455;DHT22;21057;51.024;7.540;2023-07-20T06:42:35;18.80;99.90
15455;DHT22;21057;51.024;7.540;2023-07-20T06:45:03;19.00;99.90
15455;DHT22;21057;51.024;7.540;2023-07-20T06:47:29;19.20;99.90
15455;DHT22;21057;51.024;7.540;2023-07-20T06:49:56;19.40;99.90
15455;DHT22;21057;51.024;7.540;2023-07-20T06:52:23;19.00;99.90
15455;DHT22;21057;51.024;7.540;2023-07-20T06:54:50;19.00;99.90
15455;DHT22;21057;51.024;7.540;2023-07-20T06:57:17;19.10;99.90
15455;DHT22;21057;51.024;7.540;2023-07-20T06:59:45;19.40;99.90
15455;DHT22;21057;51.024;7.540;2023-07-20T07:02:12;19.30;99.90
15455;DHT22;21057;51.024;7.540;2023-07-20T07:04:39;19.50;99.90
15455;DHT22;21057;51.024;7.540;2023-07-20T07:07:06;19.60;99.90
15455;DHT22;21057;51.024;7.540;2023-07-20T07:09:33;19.40;99.90
15455;DHT22;21057;51.024;7.540;2023-07-20T07:12:00;19.60;99.90
15455;DHT22;21057;51.024;7.540;2023-07-20T07:14:26;19.30;99.90
15455;DHT22;21057;51.024;7.540;2023-07-20T07:16:55;19.30;99.90
15455;DHT22;21057;51.024;7.540;2023-07-20T07:19:21;19.10;99.90
15455;DHT22;21057;51.024;7.540;2023-07-20T07:21:48;19.10;99.90
15455;DHT22;21057;51.024;7.540;2023-07-20T07:24:15;19.10;99.90
15455;DHT22;21057;51.024;7.540;2023-07-20T07:26:42;19.20;99.90
15455;DHT22;21057;51.024;7.540;2023-07-20T07:29:09;19.30;99.90
15455;DHT22;21057;51.024;7.540;2023-07-20T07:31:36;19.70;99.90
15455;DHT22;21057;51.024;7.540;2023-07-20T07:34:05;19.90;99.90
15455;DHT22;21057;51.024;7.540;2023-07-20T07:36:33;19.80;99.90
15455;DHT22;21057;51.024;7.540;2023-07-20T07:38:59;20.00;99.90
15455;DHT22;21057;51.024;7.540;2023-07-20T07:41:26;19.90;99.90
15455;DHT22;21057;51.024;7.540;2023-07-20T07:43:53;20.10;99.90
15455;DHT22;21057;51.024;7.540;2023-07-20T07:46:20;20.50;99.90
15455;DHT22;21057;51.024;7.540;2023-07-20T07:48:47;20.50;99.90
15455;DHT22;21057;51.024;7.540;2023-07-20T07:51:15;20.70;99.90
15455;DHT22;21057;51.024;7.540;2023-07-20T07:53:41;20.40;99.90
15455;DHT22;21057;51.024;7.540;2023-07-20T07:56:09;20.20;99.90
15455;DHT22;21057;51.024;7.540;2023-07-20T07:58:36;20.10;99.90
15455;DHT22;21057;51.024;7.540;2023-07-20T08:01:02;19.90;99.90
15455;DHT22;21057;51.024;7.540;2023-07-20T08:03:29;19.70;99.90
15455;DHT22;21057;51.024;7.540;2023-07-20T08:05:56;19.60;99.90
15455;DHT22;21057;51.024;7.540;2023-07-20T08:08:25;19.90;99.90
15455;DHT22;21057;51.024;7.540;2023-07-20T08:10:53;20.40;99.90
15455;DHT22;21057;51.024;7.540;2023-07-20T08:13:20;20.90;99.90
15455;DHT22;21057;51.024;7.540;2023-07-20T08:15:50;20.80;99.90
15455;DHT22;21057;51.024;7.540;2023-07-20T08:18:17;20.70;99.90
15455;DHT22;21057;51.024;7.540;2023-07-20T08:20:44;20.70;99.90
15455;DHT22;21057;51.024;7.540;2023-07-20T08:23:11;20.70;99.90
15455;DHT22;21057;51.024;7.540;2023-07-20T08:25:39;20.70;99.90
15455;DHT22;21057;51.024;7.540;2023-07-20T08:28:09;20.60;99.90
15455;DHT22;21057;51.024;7.540;2023-07-20T08:30:40;20.50;99.90
15455;DHT22;21057;51.024;7.540;2023-07-20T08:33:07;20.20;99.90
15455;DHT22;21057;51.024;7.540;2023-07-20T08:35:34;19.90;99.90
15455;DHT22;21057;51.024;7.540;2023-07-20T08:38:01;19.70;99.90
15455;DHT22;21057;51.024;7.540;2023-07-20T08:40:30;19.60;99.90
15455;DHT22;21057;51.024;7.540;2023-07-20T08:42:58;19.90;99.90
15455;DHT22;21057;51.024;7.540;2023-07-20T08:45:26;20.40;99.90
15455;DHT22;21057;51.024;7.540;2023-07-20T08:47:55;20.70;99.90
15455;DHT22;21057;51.024;7.540;2023-07-20T08:50:23;20.70;99.90
15455;DHT22;21057;51.024;7.540;2023-07-20T08:52:52;20.60;99.90
15455;DHT22;21057;51.024;7.540;2023-07-20T08:55:21;20.60;99.90
15455;DHT22;21057;51.024;7.540;2023-07-20T08:57:50;20.30;99.90
15455;DHT22;21057;51.024;7.540;2023-07-20T09:00:19;20.10;99.90
15455;DHT22;21057;51.024;7.540;2023-07-20T09:02:48;20.10;99.90
15455;DHT22;21057;51.024;7.540;2023-07-20T09:05:15;19.90;99.90
15455;DHT22;21057;51.024;7.540;2023-07-20T09:07:42;19.80;99.90
15455;DHT22;21057;51.024;7.540;2023-07-20T09:10:10;19.60;99.90
15455;DHT22;21057;51.024;7.540;2023-07-20T09:12:38;19.60;99.90
15455;DHT22;21057;51.024;7.540;2023-07-20T09:15:06;19.90;99.90
15455;DHT22;21057;51.024;7.540;2023-07-20T09:17:35;20.00;99.90
15455;DHT22;21057;51.024;7.540;2023-07-20T09:20:04;20.20;99.90
15455;DHT22;21057;51.024;7.540;2023-07-20T09:22:36;20.50;99.90
15455;DHT22;21057;51.024;7.540;2023-07-20T09:25:06;21.10;99.90
15455;DHT22;21057;51.024;7.540;2023-07-20T09:27:36;21.80;99.90
15455;DHT22;21057;51.024;7.540;2023-07-20T09:30:04;22.50;99.90
15455;DHT22;21057;51.024;7.540;2023-07-20T09:32:39;22.70;99.90
15455;DHT22;21057;51.024;7.540;2023-07-20T09:35:12;22.50;99.90
15455;DHT22;21057;51.024;7.540;2023-07-20T09:37:40;21.90;99.90
15455;DHT22;21057;51.024;7.540;2023-07-20T09:40:07;21.60;99.90
15455;DHT22;21057;51.024;7.540;2023-07-20T09:42:36;21.50;99.90
15455;DHT22;21057;51.024;7.540;2023-07-20T09:45:07;21.40;99.90
15455;DHT22;21057;51.024;7.540;2023-07-20T09:47:36;21.60;99.90
15455;DHT22;21057;51.024;7.540;2023-07-20T09:50:06;22.00;99.90
15455;DHT22;21057;51.024;7.540;2023-07-20T09:52:38;22.10;99.90
15455;DHT22;21057;51.024;7.540;2023-07-20T09:55:06;21.90;99.90
15455;DHT22;21057;51.024;7.540;2023-07-20T09:57:34;21.80;99.90
15455;DHT22;21057;51.024;7.540;2023-07-20T10:00:01;21.50;99.90
15455;DHT22;21057;51.024;7.540;2023-07-20T10:02:43;21.30;99.90
15455;DHT22;21057;51.024;7.540;2023-07-20T10:05:17;21.10;99.90
15455;DHT22;21057;51.024;7.540;2023-07-20T10:07:47;21.20;99.90
15455;DHT22;21057;51.024;7.540;2023-07-20T10:10:15;21.30;99.90
15455;DHT22;21057;51.024;7.540;2023-07-20T10:12:44;20.90;99.90
15455;DHT22;21057;51.024;7.540;2023-07-20T10:15:17;20.90;99.90
15455;DHT22;21057;51.024;7.540;2023-07-20T10:17:53;20.90;99.90
15455;DHT22;21057;51.024;7.540;2023-07-20T10:20:25;20.80;99.90
15455;DHT22;21057;51.024;7.540;2023-07-20T10:22:53;21.00;99.90
15455;DHT22;21057;51.024;7.540;2023-07-20T10:25:22;21.10;99.90
15455;DHT22;21057;51.024;7.540;2023-07-20T10:27:49;21.70;99.90
15455;DHT22;21057;51.024;7.540;2023-07-20T10:30:17;22.50;99.90
15455;DHT22;21057;51.024;7.540;2023-07-20T10:32:45;23.60;99.80
15455;DHT22;21057;51.024;7.540;2023-07-20T10:35:13;24.70;97.10
15455;DHT22;21057;51.024;7.540;2023-07-20T10:37:49;25.20;95.60
15455;DHT22;21057;51.024;7.540;2023-07-20T10:40:32;25.80;93.80
15455;DHT22;21057;51.024;7.540;2023-07-20T10:43:01;25.50;90.70
15455;DHT22;21057;51.024;7.540;2023-07-20T10:45:50;25.50;91.40
15455;DHT22;21057;51.024;7.540;2023-07-20T10:48:19;24.60;91.40
15455;DHT22;21057;51.024;7.540;2023-07-20T10:53:29;24.20;92.10
15455;DHT22;21057;51.024;7.540;2023-07-20T10:56:06;23.60;94.40
15455;DHT22;21057;51.024;7.540;2023-07-20T10:58:34;23.10;92.80
15455;DHT22;21057;51.024;7.540;2023-07-20T11:01:02;23.00;95.00
15455;DHT22;21057;51.024;7.540;2023-07-20T11:03:30;23.80;94.60
15455;DHT22;21057;51.024;7.540;2023-07-20T11:05:58;23.80;93.00
15455;DHT22;21057;51.024;7.540;2023-07-20T11:08:40;23.70;93.60
15455;DHT22;21057;51.024;7.540;2023-07-20T11:11:24;23.20;94.30
15455;DHT22;21057;51.024;7.540;2023-07-20T11:13:57;23.20;94.10
15455;DHT22;21057;51.024;7.540;2023-07-20T11:16:49;23.30;94.60
15455;DHT22;21057;51.024;7.540;2023-07-20T11:19:18;22.70;93.10
15455;DHT22;21057;51.024;7.540;2023-07-20T11:21:46;23.10;95.10
15455;DHT22;21057;51.024;7.540;2023-07-20T11:24:15;23.60;93.40
15455;DHT22;21057;51.024;7.540;2023-07-20T11:26:43;24.00;93.80
15455;DHT22;21057;51.024;7.540;2023-07-20T11:29:11;23.80;91.20
15455;DHT22;21057;51.024;7.540;2023-07-20T11:31:39;23.30;90.40
15455;DHT22;21057;51.024;7.540;2023-07-20T11:34:07;23.00;91.90
15455;DHT22;21057;51.024;7.540;2023-07-20T11:36:34;22.90;92.10
15455;DHT22;21057;51.024;7.540;2023-07-20T11:39:01;22.70;92.30
15455;DHT22;21057;51.024;7.540;2023-07-20T11:41:31;22.70;92.00
15455;DHT22;21057;51.024;7.540;2023-07-20T11:43:59;22.80;91.30
15455;DHT22;21057;51.024;7.540;2023-07-20T11:46:27;22.70;91.30
15455;DHT22;21057;51.024;7.540;2023-07-20T11:48:57;22.30;90.20
15455;DHT22;21057;51.024;7.540;2023-07-20T11:51:26;22.10;90.60
15455;DHT22;21057;51.024;7.540;2023-07-20T11:53:53;22.00;90.80
15455;DHT22;21057;51.024;7.540;2023-07-20T11:56:20;22.10;91.70
15455;DHT22;21057;51.024;7.540;2023-07-20T11:58:50;22.30;91.30
15455;DHT22;21057;51.024;7.540;2023-07-20T12:01:18;22.60;92.20
15455;DHT22;21057;51.024;7.540;2023-07-20T12:03:47;22.70;92.10
15455;DHT22;21057;51.024;7.540;2023-07-20T12:06:14;22.90;91.50
15455;DHT22;21057;51.024;7.540;2023-07-20T12:08:42;23.50;91.40
15455;DHT22;21057;51.024;7.540;2023-07-20T12:11:10;24.20;87.40
15455;DHT22;21057;51.024;7.540;2023-07-20T12:13:38;24.60;87.40
15455;DHT22;21057;51.024;7.540;2023-07-20T12:16:13;24.80;86.20
15455;DHT22;21057;51.024;7.540;2023-07-20T12:18:41;24.70;88.20
15455;DHT22;21057;51.024;7.540;2023-07-20T12:21:07;25.70;87.50
15455;DHT22;21057;51.024;7.540;2023-07-20T12:23:35;25.70;81.70
15455;DHT22;21057;51.024;7.540;2023-07-20T12:26:06;25.40;82.60
15455;DHT22;21057;51.024;7.540;2023-07-20T12:28:33;25.40;84.30
15455;DHT22;21057;51.024;7.540;2023-07-20T12:30:59;25.00;81.50
15455;DHT22;21057;51.024;7.540;2023-07-20T12:33:28;24.90;87.10
15455;DHT22;21057;51.024;7.540;2023-07-20T12:35:54;24.70;86.50
15455;DHT22;21057;51.024;7.540;2023-07-20T12:38:24;24.50;89.50
15455;DHT22;21057;51.024;7.540;2023-07-20T12:40:51;23.70;88.10
15455;DHT22;21057;51.024;7.540;2023-07-20T12:43:17;23.60;91.30
15455;DHT22;21057;51.024;7.540;2023-07-20T12:45:45;23.70;90.10
15455;DHT22;21057;51.024;7.540;2023-07-20T12:48:11;23.60;91.00
15455;DHT22;21057;51.024;7.540;2023-07-20T12:50:39;23.90;90.90
15455;DHT22;21057;51.024;7.540;2023-07-20T12:53:07;24.10;90.60
15455;DHT22;21057;51.024;7.540;2023-07-20T12:55:33;23.90;87.80
15455;DHT22;21057;51.024;7.540;2023-07-20T12:58:00;23.50;90.00
15455;DHT22;21057;51.024;7.540;2023-07-20T13:00:27;23.40;90.30
15455;DHT22;21057;51.024;7.540;2023-07-20T13:02:54;23.70;92.10
15455;DHT22;21057;51.024;7.540;2023-07-20T13:05:20;23.70;89.10
15455;DHT22;21057;51.024;7.540;2023-07-20T13:07:49;24.00;89.50
15455;DHT22;21057;51.024;7.540;2023-07-20T13:10:16;24.10;89.50
15455;DHT22;21057;51.024;7.540;2023-07-20T13:12:43;24.00;87.80
15455;DHT22;21057;51.024;7.540;2023-07-20T13:15:10;23.90;87.60
15455;DHT22;21057;51.024;7.540;2023-07-20T13:17:38;23.60;87.20
15455;DHT22;21057;51.024;7.540;2023-07-20T13:20:08;23.40;88.10
15455;DHT22;21057;51.024;7.540;2023-07-20T13:22:35;23.20;88.90
15455;DHT22;21057;51.024;7.540;2023-07-20T13:25:04;23.10;90.00
15455;DHT22;21057;51.024;7.540;2023-07-20T13:27:31;22.70;89.80
15455;DHT22;21057;51.024;7.540;2023-07-20T13:29:58;22.40;90.40
15455;DHT22;21057;51.024;7.540;2023-07-20T13:32:26;22.40;90.00
15455;DHT22;21057;51.024;7.540;2023-07-20T13:34:53;22.30;90.10
15455;DHT22;21057;51.024;7.540;2023-07-20T13:37:19;22.30;90.50
15455;DHT22;21057;51.024;7.540;2023-07-20T13:39:47;22.50;90.40
15455;DHT22;21057;51.024;7.540;2023-07-20T13:42:15;22.50;90.60
15455;DHT22;21057;51.024;7.540;2023-07-20T13:44:42;22.30;90.00
15455;DHT22;21057;51.024;7.540;2023-07-20T13:47:09;22.40;90.40
15455;DHT22;21057;51.024;7.540;2023-07-20T13:49:37;22.80;91.10
15455;DHT22;21057;51.024;7.540;2023-07-20T13:52:04;23.00;90.00
15455;DHT22;21057;51.024;7.540;2023-07-20T13:54:31;22.90;88.90
15455;DHT22;21057;51.024;7.540;2023-07-20T13:56:58;22.80;89.20
15455;DHT22;21057;51.024;7.540;2023-07-20T13:59:26;22.60;87.70
15455;DHT22;21057;51.024;7.540;2023-07-20T14:01:53;22.60;87.80
15455;DHT22;21057;51.024;7.540;2023-07-20T14:04:20;22.60;88.90
15455;DHT22;21057;51.024;7.540;2023-07-20T14:06:47;22.60;88.10
15455;DHT22;21057;51.024;7.540;2023-07-20T14:09:13;22.80;85.80
15455;DHT22;21057;51.024;7.540;2023-07-20T14:11:40;22.80;85.40
15455;DHT22;21057;51.024;7.540;2023-07-20T14:14:07;22.90;85.70
15455;DHT22;21057;51.024;7.540;2023-07-20T14:16:35;22.70;85.70
15455;DHT22;21057;51.024;7.540;2023-07-20T14:19:02;23.00;88.90
15455;DHT22;21057;51.024;7.540;2023-07-20T14:21:30;23.50;88.60
15455;DHT22;21057;51.024;7.540;2023-07-20T14:23:58;23.40;85.70
15455;DHT22;21057;51.024;7.540;2023-07-20T14:26:25;23.30;85.20
15455;DHT22;21057;51.024;7.540;2023-07-20T14:28:52;23.50;84.60
15455;DHT22;21057;51.024;7.540;2023-07-20T14:31:19;23.30;86.40
15455;DHT22;21057;51.024;7.540;2023-07-20T14:33:47;23.30;84.50
15455;DHT22;21057;51.024;7.540;2023-07-20T14:36:15;23.70;82.80
15455;DHT22;21057;51.024;7.540;2023-07-20T14:38:42;23.80;84.00
15455;DHT22;21057;51.024;7.540;2023-07-20T14:41:09;23.70;83.80
15455;DHT22;21057;51.024;7.540;2023-07-20T14:43:35;23.70;85.70
15455;DHT22;21057;51.024;7.540;2023-07-20T14:46:02;23.90;83.90
15455;DHT22;21057;51.024;7.540;2023-07-20T14:48:29;23.80;83.60
15455;DHT22;21057;51.024;7.540;2023-07-20T14:50:57;23.80;85.80
15455;DHT22;21057;51.024;7.540;2023-07-20T14:53:24;23.80;83.00
15455;DHT22;21057;51.024;7.540;2023-07-20T14:55:58;24.10;83.70
15455;DHT22;21057;51.024;7.540;2023-07-20T14:58:25;24.30;82.50
15455;DHT22;21057;51.024;7.540;2023-07-20T15:00:52;24.40;83.00
15455;DHT22;21057;51.024;7.540;2023-07-20T15:03:19;24.70;87.20
15455;DHT22;21057;51.024;7.540;2023-07-20T15:05:45;25.00;83.80
15455;DHT22;21057;51.024;7.540;2023-07-20T15:08:13;25.10;84.00
15455;DHT22;21057;51.024;7.540;2023-07-20T15:10:40;25.50;84.80
15455;DHT22;21057;51.024;7.540;2023-07-20T15:13:09;25.70;80.90
15455;DHT22;21057;51.024;7.540;2023-07-20T15:15:36;25.60;79.30
15455;DHT22;21057;51.024;7.540;2023-07-20T15:18:03;25.40;77.80
15455;DHT22;21057;51.024;7.540;2023-07-20T15:20:30;25.10;79.00
15455;DHT22;21057;51.024;7.540;2023-07-20T15:22:57;25.30;80.40
15455;DHT22;21057;51.024;7.540;2023-07-20T15:25:25;25.70;80.00
15455;DHT22;21057;51.024;7.540;2023-07-20T15:27:52;25.80;75.00
15455;DHT22;21057;51.024;7.540;2023-07-20T15:30:19;25.60;77.30
15455;DHT22;21057;51.024;7.540;2023-07-20T15:32:47;25.50;78.70
15455;DHT22;21057;51.024;7.540;2023-07-20T15:35:14;25.40;75.60
15455;DHT22;21057;51.024;7.540;2023-07-20T15:37:41;25.60;77.90
15455;DHT22;21057;51.024;7.540;2023-07-20T15:40:08;25.70;74.00
15455;DHT22;21057;51.024;7.540;2023-07-20T15:42:37;25.60;75.90